createdAt,value
2023-04-13T00:00:43.021Z,98467.94
2023-04-13T00:03:12.788Z,98475.91
2023-04-13T00:05:39.889Z,98474.28
2023-04-13T00:08:07.320Z,98477.47
2023-04-13T00:10:36.305Z,98480.66
2023-04-13T00:13:07.695Z,98486.63
2023-04-13T00:15:36.710Z,98469.09
2023-04-13T00:18:03.654Z,98482.22
2023-04-13T00:20:30.180Z,98473.47
2023-04-13T00:22:57.763Z,98470.69
2023-04-13T00:25:24.220Z,98470.28
2023-04-13T00:27:53.005Z,98478.22
2023-04-13T00:30:20.208Z,98476.59
2023-04-13T00:32:46.872Z,98480.59
2023-04-13T00:35:18.751Z,98485.38
2023-04-13T00:37:48.687Z,98486.91
2023-04-13T00:40:18.310Z,98478.94
2023-04-13T00:42:49.772Z,98480.94
2023-04-13T00:45:18.200Z,98479.78
2023-04-13T00:47:46.847Z,98473.38
2023-04-13T00:50:14.228Z,98478.16
2023-04-13T00:52:42.955Z,98476.94
2023-04-13T00:55:09.609Z,98477.34
2023-04-13T00:57:41.967Z,98478.13
2023-04-13T01:00:09.734Z,98482.91
2023-04-13T01:02:41.911Z,98485.31
2023-04-13T01:05:16.379Z,98487.28
2023-04-13T01:08:08.977Z,98486.88
2023-04-13T01:10:44.740Z,98498.81
2023-04-13T01:13:19.597Z,98499.59
2023-04-13T01:15:55.256Z,98492.44
2023-04-13T01:18:22.717Z,98503.19
2023-04-13T01:20:50.455Z,98511.50
2023-04-13T01:23:32.013Z,98506.34
2023-04-13T01:26:02.353Z,98500.75
2023-04-13T01:28:30.129Z,98507.13
2023-04-13T01:30:57.669Z,98505.53
2023-04-13T01:33:25.519Z,98509.88
2023-04-13T01:35:52.365Z,98501.13
2023-04-13T01:38:24.607Z,98506.66
2023-04-13T01:40:51.801Z,98498.72
2023-04-13T01:43:21.788Z,98501.06
2023-04-13T01:45:53.782Z,98493.13
2023-04-13T01:48:34.394Z,98491.91
2023-04-13T01:51:08.075Z,98501.81
2023-04-13T01:53:42.100Z,98499.44
2023-04-13T01:56:09.217Z,98502.94
2023-04-13T01:58:36.432Z,98507.28
2023-04-13T02:01:07.571Z,98519.25
2023-04-13T02:03:36.125Z,98510.44
2023-04-13T02:06:03.008Z,98517.19
2023-04-13T02:08:32.909Z,98526.25
2023-04-13T02:11:00.948Z,98528.63
2023-04-13T02:13:27.515Z,98538.16
2023-04-13T02:15:54.730Z,98540.47
2023-04-13T02:18:23.724Z,98541.69
2023-04-13T02:21:12.216Z,98549.97
2023-04-13T02:23:40.534Z,98555.16
2023-04-13T02:26:14.582Z,98565.44
2023-04-13T02:28:41.831Z,98562.66
2023-04-13T02:31:08.461Z,98562.66
2023-04-13T02:33:36.334Z,98561.13
2023-04-13T02:36:03.921Z,98567.41
2023-04-13T02:38:31.890Z,98563.84
2023-04-13T02:40:59.306Z,98562.97
2023-04-13T02:43:33.260Z,98568.81
2023-04-13T02:45:59.908Z,98568.44
2023-04-13T02:48:26.930Z,98567.16
2023-04-13T02:50:54.130Z,98564.75
2023-04-13T02:53:22.146Z,98558.41
2023-04-13T02:55:50.352Z,98575.84
2023-04-13T02:58:17.029Z,98564.72
2023-04-13T03:00:44.541Z,98575.16
2023-04-13T03:03:11.172Z,98572.31
2023-04-13T03:05:38.701Z,98575.44
2023-04-13T03:08:21.508Z,98583.28
2023-04-13T03:10:48.001Z,98580.41
2023-04-13T03:13:14.524Z,98572.50
2023-04-13T03:15:42.122Z,98577.22
2023-04-13T03:18:08.585Z,98587.88
2023-04-13T03:20:35.082Z,98585.91
2023-04-13T03:23:01.954Z,98585.88
2023-04-13T03:25:28.571Z,98583.84
2023-04-13T03:27:54.967Z,98597.28
2023-04-13T03:30:21.634Z,98597.63
2023-04-13T03:32:48.333Z,98600.41
2023-04-13T03:35:16.334Z,98601.91
2023-04-13T03:37:44.753Z,98607.09
2023-04-13T03:40:11.542Z,98607.00
2023-04-13T03:42:38.387Z,98624.44
2023-04-13T03:45:06.672Z,98620.91
2023-04-13T03:47:34.323Z,98625.69
2023-04-13T03:50:00.876Z,98628.66
2023-04-13T03:52:27.478Z,98623.09
2023-04-13T03:54:53.985Z,98625.78
2023-04-13T03:57:22.538Z,98639.69
2023-04-13T03:59:49.028Z,98632.56
2023-04-13T04:02:15.580Z,98629.69
2023-04-13T04:04:42.096Z,98635.59
2023-04-13T04:07:09.034Z,98640.34
2023-04-13T04:09:35.388Z,98631.63
2023-04-13T04:12:02.235Z,98629.97
2023-04-13T04:14:28.667Z,98622.06
2023-04-13T04:16:55.105Z,98619.69
2023-04-13T04:19:21.829Z,98611.28
2023-04-13T04:21:49.745Z,98616.38
2023-04-13T04:24:20.592Z,98609.69
2023-04-13T04:26:55.984Z,98608.50
2023-04-13T04:29:22.745Z,98603.25
2023-04-13T04:31:53.247Z,98615.66
2023-04-13T04:34:20.226Z,98617.19
2023-04-13T04:36:50.318Z,98625.75
2023-04-13T04:39:21.944Z,98626.50
2023-04-13T04:41:54.412Z,98636.50
2023-04-13T04:44:25.205Z,98651.88
2023-04-13T04:46:52.587Z,98647.09
2023-04-13T04:49:21.772Z,98647.94
2023-04-13T04:51:49.101Z,98646.09
2023-04-13T04:54:16.943Z,98658.38
2023-04-13T04:56:43.373Z,98661.44
2023-04-13T04:59:10.444Z,98646.75
2023-04-13T05:01:37.051Z,98656.69
2023-04-13T05:04:03.893Z,98644.47
2023-04-13T05:06:36.695Z,98667.81
2023-04-13T05:09:07.252Z,98680.50
2023-04-13T05:11:33.950Z,98676.25
2023-04-13T05:14:01.200Z,98686.72
2023-04-13T05:16:30.681Z,98692.69
2023-04-13T05:18:57.654Z,98704.66
2023-04-13T05:21:24.367Z,98713.47
2023-04-13T05:23:50.951Z,98720.69
2023-04-13T05:26:17.500Z,98716.72
2023-04-13T05:28:43.884Z,98722.34
2023-04-13T05:31:11.181Z,98726.75
2023-04-13T05:33:38.141Z,98727.94
2023-04-13T05:36:05.216Z,98734.34
2023-04-13T05:38:31.696Z,98738.72
2023-04-13T05:40:59.568Z,98743.34
2023-04-13T05:43:26.682Z,98744.09
2023-04-13T05:45:53.171Z,98748.91
2023-04-13T05:48:19.631Z,98756.38
2023-04-13T05:50:46.260Z,98759.09
2023-04-13T05:53:12.780Z,98774.22
2023-04-13T05:55:40.531Z,98774.22
2023-04-13T05:58:06.886Z,98778.22
2023-04-13T06:00:33.234Z,98783.78
2023-04-13T06:03:01.667Z,98772.69
2023-04-13T06:05:29.696Z,98775.09
2023-04-13T06:07:56.321Z,98792.13
2023-04-13T06:10:23.038Z,98787.38
2023-04-13T06:12:50.527Z,98794.53
2023-04-13T06:15:17.209Z,98790.94
2023-04-13T06:17:43.662Z,98789.41
2023-04-13T06:20:11.023Z,98792.13
2023-04-13T06:22:37.577Z,98781.81
2023-04-13T06:25:04.294Z,98777.00
2023-04-13T06:27:33.630Z,98777.44
2023-04-13T06:30:00.164Z,98775.47
2023-04-13T06:32:29.469Z,98786.94
2023-04-13T06:34:55.908Z,98795.66
2023-04-13T06:37:23.321Z,98797.63
2023-04-13T06:39:49.863Z,98793.69
2023-04-13T06:42:16.561Z,98780.69
2023-04-13T06:44:43.060Z,98783.09
2023-04-13T06:47:10.102Z,98777.16
2023-04-13T06:49:36.891Z,98774.75
2023-04-13T06:52:03.290Z,98777.53
2023-04-13T06:54:30.454Z,98782.03
2023-04-13T06:56:57.112Z,98779.47
2023-04-13T06:59:23.708Z,98781.34
2023-04-13T07:01:50.975Z,98778.19
2023-04-13T07:04:18.469Z,98778.28
2023-04-13T07:06:45.694Z,98775.47
2023-04-13T07:09:12.110Z,98781.22
2023-04-13T07:11:38.468Z,98781.22
2023-04-13T07:14:05.980Z,98778.66
2023-04-13T07:16:34.449Z,98785.13
2023-04-13T07:19:04.145Z,98788.50
2023-04-13T07:21:33.075Z,98793.22
2023-04-13T07:23:59.551Z,98799.50
2023-04-13T07:26:27.216Z,98813.28
2023-04-13T07:28:53.742Z,98811.94
2023-04-13T07:31:20.168Z,98818.25
2023-04-13T07:33:47.283Z,98810.72
2023-04-13T07:36:13.669Z,98811.41
2023-04-13T07:38:40.226Z,98818.38
2023-04-13T07:41:07.333Z,98814.63
2023-04-13T07:43:35.340Z,98830.06
2023-04-13T07:46:08.678Z,98827.94
2023-04-13T07:48:36.074Z,98828.19
2023-04-13T07:51:03.295Z,98829.06
2023-04-13T07:53:29.707Z,98832.56
2023-04-13T07:55:56.204Z,98842.22
2023-04-13T07:58:22.581Z,98846.22
2023-04-13T08:00:49.171Z,98845.53
2023-04-13T08:03:16.559Z,98849.03
2023-04-13T08:05:45.586Z,98856.22
2023-04-13T08:08:13.439Z,98854.34
2023-04-13T08:10:39.841Z,98860.84
2023-04-13T08:13:07.880Z,98869.31
2023-04-13T08:15:34.393Z,98867.88
2023-04-13T08:18:00.937Z,98860.44
2023-04-13T08:20:29.595Z,98861.97
2023-04-13T08:22:56.085Z,98871.88
2023-04-13T08:25:22.539Z,98873.69
2023-04-13T08:27:50.535Z,98869.19
2023-04-13T08:30:17.288Z,98876.59
2023-04-13T08:32:44.020Z,98885.81
2023-04-13T08:35:11.627Z,98889.09
2023-04-13T08:37:39.520Z,98891.59
2023-04-13T08:40:07.793Z,98893.19
2023-04-13T08:42:34.803Z,98885.59
2023-04-13T08:45:09.926Z,98894.63
2023-04-13T08:47:36.644Z,98884.88
2023-04-13T08:50:03.266Z,98878.50
2023-04-13T08:52:29.940Z,98899.34
2023-04-13T08:54:58.357Z,98885.28
2023-04-13T08:57:24.847Z,98896.19
2023-04-13T08:59:55.184Z,98889.91
2023-04-13T09:02:26.643Z,98887.22
2023-04-13T09:04:54.614Z,98887.19
2023-04-13T09:07:29.095Z,98886.78
2023-04-13T09:10:00.432Z,98891.00
2023-04-13T09:12:28.572Z,98884.00
2023-04-13T09:14:55.620Z,98900.63
2023-04-13T09:17:25.848Z,98898.84
2023-04-13T09:19:53.194Z,98899.50
2023-04-13T09:22:19.943Z,98886.75
2023-04-13T09:24:46.373Z,98888.97
2023-04-13T09:27:21.067Z,98888.81
2023-04-13T09:29:51.657Z,98896.78
2023-04-13T09:32:22.868Z,98902.69
2023-04-13T09:35:22.562Z,98895.88
2023-04-13T09:37:54.487Z,98910.28
2023-04-13T09:40:21.287Z,98913.31
2023-04-13T09:42:59.839Z,98923.25
2023-04-13T09:45:44.372Z,98913.91
2023-04-13T09:48:21.931Z,98912.41
2023-04-13T09:51:06.804Z,98925.44
2023-04-13T09:53:46.336Z,98918.63
2023-04-13T09:56:12.991Z,98917.88
2023-04-13T09:58:46.566Z,98916.94
2023-04-13T10:01:15.412Z,98922.03
2023-04-13T10:03:42.485Z,98922.91
2023-04-13T10:06:09.395Z,98929.31
2023-04-13T10:08:41.305Z,98926.91
2023-04-13T10:11:11.844Z,98924.00
2023-04-13T10:13:45.655Z,98903.69
2023-04-13T10:16:36.979Z,98908.28
2023-04-13T10:19:15.570Z,98910.44
2023-04-13T10:21:48.063Z,98902.28
2023-04-13T10:24:15.228Z,98904.00
2023-04-13T10:26:43.907Z,98904.41
2023-04-13T10:29:11.646Z,98908.75
2023-04-13T10:31:39.794Z,98915.56
2023-04-13T10:34:07.574Z,98916.63
2023-04-13T10:36:42.186Z,98920.16
2023-04-13T10:39:11.763Z,98917.38
2023-04-13T10:41:38.597Z,98912.31
2023-04-13T10:44:08.562Z,98910.97
2023-04-13T10:46:36.199Z,98919.16
2023-04-13T10:49:04.118Z,98915.63
2023-04-13T10:51:41.094Z,98909.25
2023-04-13T10:54:08.380Z,98912.66
2023-04-13T10:56:35.164Z,98914.50
2023-04-13T10:59:04.466Z,98906.50
2023-04-13T11:01:31.948Z,98935.22
2023-04-13T11:04:06.781Z,98927.31
2023-04-13T11:06:39.038Z,98923.28
2023-04-13T11:09:07.036Z,98927.72
2023-04-13T11:11:36.372Z,98921.22
2023-04-13T11:14:03.655Z,98911.25
2023-04-13T11:16:30.238Z,98913.66
2023-04-13T11:19:04.213Z,98917.97
2023-04-13T11:21:35.465Z,98923.31
2023-04-13T11:24:02.106Z,98914.16
2023-04-13T11:26:37.275Z,98922.44
2023-04-13T11:29:04.637Z,98928.13
2023-04-13T11:31:39.180Z,98924.69
2023-04-13T11:34:06.919Z,98925.44
2023-04-13T11:36:33.650Z,98923.09
2023-04-13T11:39:01.454Z,98921.31
2023-04-13T11:41:28.955Z,98925.88
2023-04-13T11:43:55.411Z,98931.16
2023-04-13T11:46:25.035Z,98934.72
2023-04-13T11:48:54.867Z,98916.53
2023-04-13T11:51:22.185Z,98917.25
2023-04-13T11:53:51.298Z,98917.81
2023-04-13T11:56:18.218Z,98909.03
2023-04-13T11:58:44.973Z,98895.75
2023-04-13T12:01:20.313Z,98892.22
2023-04-13T12:04:01.421Z,98910.75
2023-04-13T12:06:35.168Z,98910.78
2023-04-13T12:09:10.130Z,98912.81
2023-04-13T12:11:44.194Z,98915.00
2023-04-13T12:19:26.253Z,98903.78
2023-04-13T12:21:56.449Z,98905.22
2023-04-13T12:24:37.636Z,98900.44
2023-04-13T12:29:41.367Z,98903.13
2023-04-13T12:32:14.429Z,98907.78
2023-04-13T12:34:41.972Z,98910.56
2023-04-13T12:37:09.326Z,98897.66
2023-04-13T12:39:35.774Z,98907.16
2023-04-13T12:42:02.558Z,98897.72
2023-04-13T12:44:30.082Z,98892.72
2023-04-13T12:46:57.730Z,98902.34
2023-04-13T12:49:24.329Z,98903.66
2023-04-13T12:51:50.812Z,98904.16
2023-04-13T12:54:18.002Z,98900.09
2023-04-13T12:56:44.366Z,98897.41
2023-04-13T12:59:11.139Z,98908.44
2023-04-13T13:01:38.021Z,98913.63
2023-04-13T13:04:05.084Z,98914.03
2023-04-13T13:06:32.797Z,98923.19
2023-04-13T13:08:59.728Z,98926.16
2023-04-13T13:11:27.520Z,98926.59
2023-04-13T13:13:54.060Z,98924.22
2023-04-13T13:16:21.349Z,98909.72
2023-04-13T13:18:51.285Z,98897.59
2023-04-13T13:21:19.285Z,98912.50
2023-04-13T13:23:46.241Z,98904.66
2023-04-13T13:26:23.935Z,98907.94
2023-04-13T13:28:52.571Z,98914.72
2023-04-13T13:31:19.485Z,98905.41
2023-04-13T13:33:46.341Z,98900.81
2023-04-13T13:36:14.110Z,98906.03
2023-04-13T13:38:42.484Z,98910.00
2023-04-13T13:41:08.992Z,98899.09
2023-04-13T13:43:35.568Z,98904.66
2023-04-13T13:46:02.234Z,98903.88
2023-04-13T13:48:28.618Z,98900.81
2023-04-13T13:50:55.914Z,98906.53
2023-04-13T13:53:22.394Z,98910.13
2023-04-13T13:55:50.743Z,98912.50
2023-04-13T13:58:17.210Z,98917.09
2023-04-13T14:00:43.897Z,98911.56
2023-04-13T14:03:10.711Z,98910.78
2023-04-13T14:05:37.650Z,98907.94
2023-04-13T14:08:04.219Z,98918.78
2023-04-13T14:10:30.668Z,98908.06
2023-04-13T14:12:59.039Z,98915.66
2023-04-13T14:15:25.637Z,98908.06
2023-04-13T14:18:08.453Z,98909.41
2023-04-13T14:20:38.926Z,98911.19
2023-04-13T14:23:06.002Z,98905.06
2023-04-13T14:25:32.733Z,98905.31
2023-04-13T14:27:59.248Z,98895.16
2023-04-13T14:30:27.902Z,98894.22
2023-04-13T14:32:54.721Z,98898.16
2023-04-13T14:35:21.409Z,98896.44
2023-04-13T14:37:47.727Z,98897.59
2023-04-13T14:40:16.975Z,98903.97
2023-04-13T14:42:43.619Z,98898.66
2023-04-13T14:45:13.307Z,98892.88
2023-04-13T14:47:40.138Z,98893.63
2023-04-13T14:50:08.290Z,98900.94
2023-04-13T14:52:34.680Z,98903.13
2023-04-13T14:55:01.497Z,98897.53
2023-04-13T14:57:28.716Z,98913.38
2023-04-13T14:59:56.307Z,98911.88
2023-04-13T15:02:23.508Z,98916.56
2023-04-13T15:04:50.359Z,98917.72
2023-04-13T15:07:18.840Z,98922.97
2023-04-13T15:09:45.473Z,98934.53
2023-04-13T15:12:13.502Z,98935.63
2023-04-13T15:14:40.614Z,98932.66
2023-04-13T15:17:08.391Z,98943.84
2023-04-13T15:19:34.793Z,98944.22
2023-04-13T15:22:01.300Z,98932.69
2023-04-13T15:24:27.774Z,98939.81
2023-04-13T15:26:54.438Z,98932.00
2023-04-13T15:29:21.304Z,98936.22
2023-04-13T15:31:47.758Z,98943.94
2023-04-13T15:34:14.185Z,98937.13
2023-04-13T15:36:40.698Z,98943.25
2023-04-13T15:39:07.350Z,98945.41
2023-04-13T15:41:33.840Z,98952.59
2023-04-13T15:44:00.771Z,98958.09
2023-04-13T15:46:28.370Z,98957.22
2023-04-13T15:48:56.023Z,98967.25
2023-04-13T15:51:23.188Z,98961.09
2023-04-13T15:53:49.590Z,98963.34
2023-04-13T15:56:16.474Z,98966.38
2023-04-13T15:58:43.001Z,98967.25
2023-04-13T16:01:11.137Z,98974.28
2023-04-13T16:03:38.305Z,98966.88
2023-04-13T16:06:04.947Z,98961.84
2023-04-13T16:08:32.429Z,98970.06
2023-04-13T16:11:00.563Z,98972.19
2023-04-13T16:13:45.067Z,98968.25
2023-04-13T16:16:15.046Z,98970.13
2023-04-13T16:18:41.964Z,98972.94
2023-04-13T16:21:10.879Z,98972.47
2023-04-13T16:23:37.476Z,98972.13
2023-04-13T16:26:04.740Z,98971.50
2023-04-13T16:28:31.204Z,98962.84
2023-04-13T16:30:58.062Z,98967.59
2023-04-13T16:33:24.525Z,98964.78
2023-04-13T16:35:51.359Z,98970.84
2023-04-13T16:38:17.936Z,98962.88
2023-04-13T16:40:44.301Z,98962.16
2023-04-13T16:43:10.852Z,98959.00
2023-04-13T16:45:37.717Z,98962.28
2023-04-13T16:48:05.022Z,98968.72
2023-04-13T16:50:32.322Z,98964.72
2023-04-13T16:52:59.203Z,98967.56
2023-04-13T16:55:28.197Z,98961.94
2023-04-13T16:57:55.122Z,98968.38
2023-04-13T17:00:23.587Z,98967.97
2023-04-13T17:02:50.276Z,98967.16
2023-04-13T17:05:17.009Z,98977.97
2023-04-13T17:07:47.507Z,98977.19
2023-04-13T17:10:17.324Z,98971.19
2023-04-13T17:12:48.186Z,98971.53
2023-04-13T17:15:23.943Z,98970.34
2023-04-13T17:17:57.329Z,98973.53
2023-04-13T17:20:23.790Z,98968.72
2023-04-13T17:22:50.522Z,98962.72
2023-04-13T17:25:17.732Z,98966.34
2023-04-13T17:27:44.177Z,98959.13
2023-04-13T17:30:11.541Z,98949.50
2023-04-13T17:32:38.039Z,98957.78
2023-04-13T17:35:05.392Z,98952.63
2023-04-13T17:37:32.015Z,98948.56
2023-04-13T17:39:59.456Z,98954.81
2023-04-13T17:42:26.514Z,98950.41
2023-04-13T17:44:53.216Z,98953.59
2023-04-13T17:47:19.926Z,98952.75
2023-04-13T17:49:46.380Z,98954.75
2023-04-13T17:52:12.830Z,98966.06
2023-04-13T17:54:40.495Z,98962.13
2023-04-13T17:57:07.699Z,98959.88
2023-04-13T17:59:34.205Z,98966.19
2023-04-13T18:02:00.676Z,98974.94
2023-04-13T18:04:27.432Z,98989.63
2023-04-13T18:06:56.411Z,99006.75
2023-04-13T18:09:24.816Z,99017.84
2023-04-13T18:11:51.491Z,99032.94
2023-04-13T18:14:18.064Z,99048.81
2023-04-13T18:16:44.714Z,99063.13
2023-04-13T18:19:11.281Z,99083.00
2023-04-13T18:21:39.188Z,99099.69
2023-04-13T18:24:05.942Z,99112.06
2023-04-13T18:26:32.701Z,99122.09
2023-04-13T18:28:59.400Z,99117.47
2023-04-13T18:31:25.983Z,99122.22
2023-04-13T18:33:52.600Z,99119.06
2023-04-13T18:36:19.329Z,99120.22
2023-04-13T18:38:46.181Z,99127.81
2023-04-13T18:41:13.093Z,99137.41
2023-04-13T18:43:39.659Z,99142.50
2023-04-13T18:46:07.579Z,99142.84
2023-04-13T18:48:34.293Z,99142.47
2023-04-13T18:51:03.271Z,99149.16
2023-04-13T18:53:30.339Z,99141.72
2023-04-13T18:55:57.928Z,99150.03
2023-04-13T18:58:24.514Z,99144.50
2023-04-13T19:00:51.356Z,99152.50
2023-04-13T19:03:17.905Z,99141.69
2023-04-13T19:05:44.418Z,99141.28
2023-04-13T19:08:13.497Z,99143.56
2023-04-13T19:10:43.312Z,99126.47
2023-04-13T19:13:10.138Z,99122.91
2023-04-13T19:15:36.718Z,99119.28
2023-04-13T19:18:07.644Z,99117.50
2023-04-13T19:20:34.011Z,99114.19
2023-04-13T19:23:00.533Z,99112.50
2023-04-13T19:25:26.970Z,99113.63
2023-04-13T19:27:53.640Z,99107.25
2023-04-13T19:30:20.129Z,99108.75
2023-04-13T19:32:48.462Z,99104.75
2023-04-13T19:35:15.577Z,99099.78
2023-04-13T19:37:42.394Z,99106.53
2023-04-13T19:40:10.046Z,99100.09
2023-04-13T19:42:37.205Z,99098.75
2023-04-13T19:45:04.108Z,99097.81
2023-04-13T19:47:31.528Z,99103.38
2023-04-13T19:49:58.150Z,99105.78
2023-04-13T19:52:25.250Z,99095.72
2023-04-13T19:54:52.311Z,99095.66
2023-04-13T19:57:18.818Z,99099.50
2023-04-13T19:59:45.286Z,99099.91
2023-04-13T20:02:11.711Z,99093.97
2023-04-13T20:04:40.113Z,99086.50
2023-04-13T20:07:06.856Z,99081.53
2023-04-13T20:09:33.382Z,99084.03
2023-04-13T20:11:59.822Z,99078.03
2023-04-13T20:14:27.393Z,99077.50
2023-04-13T20:16:53.840Z,99086.09
2023-04-13T20:19:20.636Z,99086.28
2023-04-13T20:21:47.880Z,99091.84
2023-04-13T20:24:15.379Z,99091.66
2023-04-13T20:26:43.498Z,99097.94
2023-04-13T20:29:10.520Z,99098.97
2023-04-13T20:31:37.237Z,99104.44
2023-04-13T20:34:04.027Z,99105.09
2023-04-13T20:36:31.284Z,99106.41
2023-04-13T20:38:59.364Z,99109.13
2023-04-13T20:41:27.093Z,99109.88
2023-04-13T20:43:53.508Z,99105.91
2023-04-13T20:46:25.391Z,99096.13
2023-04-13T20:48:52.733Z,99093.63
2023-04-13T20:51:23.304Z,99083.91
2023-04-13T20:53:50.168Z,99076.66
2023-04-13T20:56:19.019Z,99070.13
2023-04-13T20:58:46.478Z,99061.81
2023-04-13T21:01:13.117Z,99061.16
2023-04-13T21:03:40.238Z,99054.34
2023-04-13T21:06:07.727Z,99055.09
2023-04-13T21:08:34.303Z,99057.63
2023-04-13T21:11:01.127Z,99049.75
2023-04-13T21:13:28.049Z,99051.78
2023-04-13T21:15:54.622Z,99056.97
2023-04-13T21:18:21.181Z,99050.25
2023-04-13T21:20:47.591Z,99052.66
2023-04-13T21:23:14.028Z,99061.41
2023-04-13T21:25:41.873Z,99059.16
2023-04-13T21:28:08.321Z,99078.06
2023-04-13T21:30:34.842Z,99075.75
2023-04-13T21:33:01.400Z,99083.25
2023-04-13T21:35:29.265Z,99083.19
2023-04-13T21:37:55.743Z,99083.63
2023-04-13T21:40:24.122Z,99083.19
2023-04-13T21:42:50.913Z,99088.28
2023-04-13T21:45:17.348Z,99092.25
2023-04-13T21:47:43.936Z,99100.38
2023-04-13T21:50:10.599Z,99093.31
2023-04-13T21:52:37.268Z,99103.78
2023-04-13T21:55:04.320Z,99097.44
2023-04-13T21:57:31.668Z,99095.09
2023-04-13T21:59:58.099Z,99096.06
2023-04-13T22:02:24.826Z,99091.78
2023-04-13T22:04:51.540Z,99082.31
2023-04-13T22:07:22.099Z,99075.31
2023-04-13T22:09:52.389Z,99075.41
2023-04-13T22:12:18.814Z,99068.59
2023-04-13T22:14:45.310Z,99067.72
2023-04-13T22:17:13.239Z,99061.28
2023-04-13T22:19:40.980Z,99056.16
2023-04-13T22:22:07.452Z,99050.63
2023-04-13T22:24:33.980Z,99051.59
2023-04-13T22:27:04.049Z,99045.69
2023-04-13T22:29:30.938Z,99048.75
2023-04-13T22:31:59.289Z,99037.84
2023-04-13T22:34:29.051Z,99033.88
2023-04-13T22:36:55.667Z,99032.28
2023-04-13T22:39:22.210Z,99033.44
2023-04-13T22:41:48.623Z,99030.88
2023-04-13T22:44:15.009Z,99025.69
2023-04-13T22:46:41.558Z,99030.50
2023-04-13T22:49:08.845Z,99037.41
2023-04-13T22:51:41.549Z,99046.00
2023-04-13T22:54:07.985Z,99047.97
2023-04-13T22:56:34.357Z,99050.19
2023-04-13T22:59:01.217Z,99052.34
2023-04-13T23:01:27.935Z,99061.72
2023-04-13T23:03:55.591Z,99054.56
2023-04-13T23:06:22.353Z,99061.91
2023-04-13T23:08:48.800Z,99077.19
2023-04-13T23:11:15.466Z,99080.16
2023-04-13T23:13:43.270Z,99085.78
2023-04-13T23:16:11.664Z,99092.31
2023-04-13T23:18:38.341Z,99094.75
2023-04-13T23:21:12.127Z,99092.50
2023-04-13T23:23:39.789Z,99096.56
2023-04-13T23:26:06.685Z,99096.63
2023-04-13T23:28:33.438Z,99091.63
2023-04-13T23:31:07.477Z,99093.59
2023-04-13T23:33:34.589Z,99100.66
2023-04-13T23:36:01.683Z,99090.91
2023-04-13T23:38:28.663Z,99093.06
2023-04-13T23:40:55.223Z,99093.69
2023-04-13T23:43:22.676Z,99091.19
2023-04-13T23:45:51.426Z,99098.78
2023-04-13T23:48:18.863Z,99096.19
2023-04-13T23:50:45.473Z,99093.75
2023-04-13T23:53:12.104Z,99092.16
2023-04-13T23:55:38.699Z,99087.41
2023-04-13T23:58:05.344Z,99086.84
